Time;durP1;ratioP1;P1;durP2;ratioP2;P2;SDS_P1;SDS_P2;PMS_P1;PMS_P2;Temp;Humidity;BMP_temperature;BMP_pressure;BME280_temperature;BME280_humidity;BME280_pressure;Samples;Min_cycle;Max_cycle;Signal;HPM_P1;HPM_P2
2023/07/19 00:00:16;;;;;;;6.95;2.30;;;21.10;99.90;;;;;;5030861;28;20103;-60
2023/07/19 00:02:41;;;;;;;7.45;2.33;;;21.00;99.90;;;;;;5034688;28;20449;-60
2023/07/19 00:05:10;;;;;;;8.95;2.15;;;21.00;99.90;;;;;;5038834;28;20133;-61
2023/07/19 00:07:36;;;;;;;7.60;2.58;;;20.90;99.90;;;;;;5033265;28;20025;-59
2023/07/19 00:10:03;;;;;;;8.73;2.45;;;20.90;99.90;;;;;;5034921;28;20426;-60
2023/07/19 00:12:29;;;;;;;6.13;2.20;;;20.80;99.90;;;;;;5034714;28;20025;-59
2023/07/19 00:14:54;;;;;;;5.85;2.30;;;20.80;99.90;;;;;;5033227;28;20140;-60
2023/07/19 00:17:20;;;;;;;5.18;2.30;;;20.70;99.90;;;;;;5034560;28;20036;-61
2023/07/19 00:19:46;;;;;;;8.05;2.45;;;20.80;99.90;;;;;;5053673;28;20033;-60
2023/07/19 00:22:11;;;;;;;7.35;2.63;;;20.80;99.90;;;;;;5054477;28;20083;-60
2023/07/19 00:24:37;;;;;;;6.50;2.20;;;20.70;99.90;;;;;;5040102;28;20052;-61
2023/07/19 00:27:03;;;;;;;6.80;2.50;;;20.70;99.90;;;;;;5047654;28;20437;-60
2023/07/19 00:29:28;;;;;;;6.38;2.65;;;20.80;99.90;;;;;;5040034;28;20029;-60
2023/07/19 00:31:54;;;;;;;8.07;2.58;;;21.00;99.90;;;;;;5039307;28;20063;-60
2023/07/19 00:34:20;;;;;;;8.52;2.45;;;21.10;99.90;;;;;;5043536;28;20088;-61
2023/07/19 00:36:46;;;;;;;7.85;3.00;;;21.20;99.90;;;;;;5034498;28;20029;-59
2023/07/19 00:39:12;;;;;;;8.23;2.40;;;21.20;99.90;;;;;;5034286;28;20103;-60
2023/07/19 00:41:37;;;;;;;8.45;2.78;;;21.30;99.90;;;;;;5034022;28;20049;-60
2023/07/19 00:44:03;;;;;;;7.38;2.50;;;21.30;99.90;;;;;;5033883;28;20044;-60
2023/07/19 00:46:29;;;;;;;6.50;2.40;;;21.40;99.90;;;;;;5033931;28;20473;-60
2023/07/19 00:48:56;;;;;;;8.30;2.60;;;21.50;99.90;;;;;;5032504;28;20033;-61
2023/07/19 00:51:22;;;;;;;9.77;3.00;;;21.50;99.90;;;;;;5033890;28;20196;-60
2023/07/19 00:53:49;;;;;;;6.43;2.47;;;21.50;99.90;;;;;;5039547;28;20021;-60
2023/07/19 00:56:17;;;;;;;9.73;2.80;;;21.40;99.90;;;;;;5045914;28;20037;-60
2023/07/19 00:58:43;;;;;;;9.82;2.78;;;21.30;99.90;;;;;;5053556;28;20112;-61
2023/07/19 01:01:09;;;;;;;8.52;2.85;;;21.20;99.90;;;;;;5049014;28;20022;-60
2023/07/19 01:03:35;;;;;;;7.03;2.95;;;21.10;99.90;;;;;;5034150;28;20025;-60
2023/07/19 01:06:03;;;;;;;7.53;2.60;;;20.90;99.90;;;;;;5053793;28;20037;-60
2023/07/19 01:08:29;;;;;;;9.07;2.47;;;20.80;99.90;;;;;;5053709;28;20492;-60
2023/07/19 01:10:55;;;;;;;8.98;2.67;;;20.70;99.90;;;;;;5053360;28;20052;-60
2023/07/19 01:13:21;;;;;;;5.90;2.70;;;20.60;99.90;;;;;;5046771;28;20502;-60
2023/07/19 01:15:47;;;;;;;9.80;2.60;;;20.50;99.90;;;;;;5041958;28;20041;-59
2023/07/19 01:18:13;;;;;;;7.00;2.58;;;20.60;99.90;;;;;;5039264;28;20596;-60
2023/07/19 01:20:38;;;;;;;7.40;2.33;;;20.60;99.90;;;;;;5053261;28;20115;-60
2023/07/19 01:23:04;;;;;;;7.65;2.53;;;20.50;99.90;;;;;;5038596;28;20021;-60
2023/07/19 01:25:30;;;;;;;8.60;2.80;;;20.40;99.90;;;;;;5033320;28;20059;-58
2023/07/19 01:27:57;;;;;;;6.90;2.58;;;20.40;99.90;;;;;;5032859;28;20033;-58
2023/07/19 01:30:22;;;;;;;8.30;2.63;;;20.40;99.90;;;;;;5033139;28;20108;-60
2023/07/19 01:32:48;;;;;;;7.28;2.40;;;20.40;99.90;;;;;;5034090;28;20104;-59
2023/07/19 01:35:14;;;;;;;5.53;2.25;;;20.30;99.90;;;;;;5043178;28;20087;-60
2023/07/19 01:37:40;;;;;;;9.45;2.70;;;20.30;99.90;;;;;;5052095;28;20024;-60
2023/07/19 01:40:06;;;;;;;8.77;2.75;;;20.30;99.90;;;;;;5035666;28;20033;-61
2023/07/19 01:42:32;;;;;;;8.70;2.75;;;20.30;99.90;;;;;;5032678;28;20022;-61
2023/07/19 01:45:00;;;;;;;7.78;2.50;;;20.40;99.90;;;;;;5041262;28;20037;-60
2023/07/19 01:47:26;;;;;;;6.15;2.33;;;20.60;99.90;;;;;;5052701;28;20025;-60
2023/07/19 01:49:52;;;;;;;6.47;2.50;;;20.90;99.90;;;;;;5052757;28;20063;-60
2023/07/19 01:52:17;;;;;;;7.20;2.50;;;21.00;99.90;;;;;;5052717;28;20017;-60
2023/07/19 01:54:43;;;;;;;7.85;2.95;;;21.10;99.90;;;;;;5044909;28;20629;-60
2023/07/19 01:57:09;;;;;;;5.97;2.53;;;21.20;99.90;;;;;;5042306;28;20029;-60
2023/07/19 01:59:35;;;;;;;10.25;2.72;;;21.20;99.90;;;;;;5039203;28;20152;-61
2023/07/19 02:02:01;;;;;;;6.55;2.80;;;21.20;99.90;;;;;;5032800;28;20553;-60
2023/07/19 02:04:27;;;;;;;9.30;2.63;;;21.20;99.90;;;;;;5032295;28;20041;-60
2023/07/19 02:06:53;;;;;;;7.10;2.30;;;21.30;99.90;;;;;;5032380;28;20406;-60
2023/07/19 02:09:19;;;;;;;5.78;2.15;;;21.30;99.90;;;;;;5032359;28;20104;-61
2023/07/19 02:11:44;;;;;;;7.15;2.63;;;21.20;99.90;;;;;;5032271;28;20503;-60
2023/07/19 02:14:11;;;;;;;7.32;2.30;;;21.20;99.90;;;;;;5038524;28;20530;-60
2023/07/19 02:16:36;;;;;;;7.30;2.45;;;21.20;99.90;;;;;;5043252;28;20072;-60
2023/07/19 02:19:03;;;;;;;4.60;2.10;;;21.00;99.90;;;;;;5042849;28;20065;-59
2023/07/19 02:21:29;;;;;;;8.55;2.30;;;20.80;99.90;;;;;;5032142;28;20029;-60
2023/07/19 02:23:54;;;;;;;10.43;2.83;;;20.70;99.90;;;;;;5031808;28;20094;-60
2023/07/19 02:26:20;;;;;;;7.50;2.70;;;20.50;99.90;;;;;;5046016;28;20064;-60
2023/07/19 02:28:46;;;;;;;5.70;2.05;;;20.40;99.90;;;;;;5051592;28;20185;-61
2023/07/19 02:31:12;;;;;;;10.18;2.90;;;20.40;99.90;;;;;;5051781;28;20029;-60
2023/07/19 02:33:37;;;;;;;6.53;2.35;;;20.40;99.90;;;;;;5047793;28;20485;-60
2023/07/19 02:36:03;;;;;;;6.47;2.47;;;20.30;99.90;;;;;;5046203;28;20017;-60
2023/07/19 02:38:29;;;;;;;9.02;2.40;;;20.20;99.90;;;;;;5033839;28;20025;-60
2023/07/19 02:40:59;;;;;;;7.55;2.67;;;20.20;99.90;;;;;;5051362;28;20025;-60
2023/07/19 02:43:25;;;;;;;8.70;2.45;;;20.20;99.90;;;;;;5051537;28;20028;-60
2023/07/19 02:45:54;;;;;;;9.70;2.70;;;20.10;99.90;;;;;;5036089;28;20502;-60
2023/07/19 02:48:20;;;;;;;7.38;2.33;;;20.10;99.90;;;;;;5031623;28;20108;-60
2023/07/19 02:50:47;;;;;;;7.35;2.47;;;20.10;99.90;;;;;;5031643;28;20029;-60
2023/07/19 02:53:13;;;;;;;9.52;2.42;;;20.10;99.90;;;;;;5031742;28;20026;-61
2023/07/19 02:55:39;;;;;;;6.50;2.08;;;20.10;99.90;;;;;;5044639;28;20083;-61
2023/07/19 02:58:06;;;;;;;6.78;2.47;;;20.00;99.90;;;;;;5031451;28;20391;-60
2023/07/19 03:00:31;;;;;;;9.00;2.70;;;20.10;99.90;;;;;;5036651;28;20021;-60
2023/07/19 03:02:57;;;;;;;7.70;2.53;;;20.30;99.90;;;;;;5051387;28;20398;-60
2023/07/19 03:05:23;;;;;;;7.78;2.15;;;20.60;99.90;;;;;;5051177;28;20379;-60
2023/07/19 03:07:50;;;;;;;9.15;2.50;;;20.70;99.90;;;;;;5051535;28;20021;-60
2023/07/19 03:10:16;;;;;;;5.97;2.08;;;20.90;99.90;;;;;;5050889;28;20111;-60
2023/07/19 03:12:42;;;;;;;8.55;2.47;;;20.90;99.90;;;;;;5051087;28;20033;-59
2023/07/19 03:15:08;;;;;;;7.13;2.28;;;20.90;99.90;;;;;;5051254;28;20032;-60
2023/07/19 03:17:34;;;;;;;10.68;2.70;;;20.90;99.90;;;;;;5050971;28;20035;-60
2023/07/19 03:20:00;;;;;;;10.02;2.92;;;20.80;99.90;;;;;;5051158;28;20099;-60
2023/07/19 03:22:25;;;;;;;8.48;2.25;;;20.70;99.90;;;;;;5051004;28;20021;-61
2023/07/19 03:24:51;;;;;;;8.68;2.58;;;20.70;99.90;;;;;;5043251;28;20056;-60
2023/07/19 03:27:16;;;;;;;6.20;2.30;;;20.70;99.90;;;;;;5050792;28;20087;-59
2023/07/19 03:29:42;;;;;;;7.70;2.38;;;20.80;99.90;;;;;;5037332;28;20017;-60
2023/07/19 03:32:08;;;;;;;10.27;3.03;;;20.80;99.90;;;;;;5050925;28;20029;-60
2023/07/19 03:34:34;;;;;;;6.82;2.20;;;20.50;99.90;;;;;;5042962;28;20029;-60
2023/07/19 03:37:00;;;;;;;8.07;2.25;;;20.40;99.90;;;;;;5050868;28;20040;-60
2023/07/19 03:39:25;;;;;;;9.35;2.97;;;20.30;99.90;;;;;;5034766;28;20026;-60
2023/07/19 03:41:51;;;;;;;9.35;2.30;;;20.20;99.90;;;;;;5044914;28;20044;-60
2023/07/19 03:44:17;;;;;;;6.93;2.50;;;20.10;99.90;;;;;;5054981;28;20033;-60
2023/07/19 03:46:43;;;;;;;10.98;2.50;;;19.90;99.90;;;;;;5055077;28;20417;-60
2023/07/19 03:49:09;;;;;;;9.35;2.72;;;19.80;99.90;;;;;;5054965;28;20025;-60
2023/07/19 03:51:35;;;;;;;10.20;2.60;;;19.70;99.90;;;;;;5054834;28;20029;-60
2023/07/19 03:54:00;;;;;;;6.57;2.70;;;19.60;99.90;;;;;;5037782;28;20025;-61
2023/07/19 03:56:26;;;;;;;12.32;2.88;;;19.60;99.90;;;;;;5045903;28;20046;-61
2023/07/19 03:58:52;;;;;;;8.55;2.30;;;19.60;99.90;;;;;;5041112;28;20036;-60
2023/07/19 04:01:17;;;;;;;8.82;2.72;;;19.50;99.90;;;;;;5054659;28;20025;-60
2023/07/19 04:03:43;;;;;;;6.22;2.08;;;19.40;99.90;;;;;;5048716;28;20056;-59
2023/07/19 04:06:09;;;;;;;7.05;2.72;;;19.40;99.90;;;;;;5034158;28;20482;-60
2023/07/19 04:08:35;;;;;;;8.23;2.35;;;19.40;99.90;;;;;;5034278;28;20022;-61
2023/07/19 04:11:01;;;;;;;9.80;2.60;;;19.30;99.90;;;;;;5034979;28;20033;-60
2023/07/19 04:13:27;;;;;;;5.43;2.50;;;19.40;99.90;;;;;;5034567;28;20029;-60
2023/07/19 04:15:53;;;;;;;7.05;2.75;;;19.30;99.90;;;;;;5041067;28;20025;-61
2023/07/19 04:18:19;;;;;;;8.88;2.70;;;19.40;99.90;;;;;;5045909;28;20059;-60
2023/07/19 04:20:45;;;;;;;5.95;2.22;;;19.60;99.90;;;;;;5054598;28;20025;-60
2023/07/19 04:23:11;;;;;;;7.43;2.50;;;19.60;99.90;;;;;;5053898;28;20035;-60
2023/07/19 04:25:37;;;;;;;8.15;2.58;;;19.70;99.90;;;;;;5054275;28;20063;-60
2023/07/19 04:28:03;;;;;;;6.75;2.70;;;19.70;99.90;;;;;;5054127;28;20021;-60
2023/07/19 04:30:29;;;;;;;8.45;3.15;;;19.70;99.90;;;;;;5054590;28;20116;-60
2023/07/19 04:32:55;;;;;;;6.78;2.47;;;19.60;99.90;;;;;;5054134;28;20096;-61
2023/07/19 04:35:22;;;;;;;8.48;2.83;;;19.60;99.90;;;;;;5053883;28;20112;-60
2023/07/19 04:37:49;;;;;;;5.70;2.10;;;19.50;99.90;;;;;;5054185;28;20033;-60
2023/07/19 04:40:16;;;;;;;8.48;2.60;;;19.40;99.90;;;;;;5051871;28;20033;-61
2023/07/19 04:42:42;;;;;;;7.82;2.75;;;19.40;99.90;;;;;;5042735;28;20055;-60
2023/07/19 04:45:08;;;;;;;7.82;2.60;;;19.50;99.90;;;;;;5042057;28;20112;-60
2023/07/19 04:47:36;;;;;;;7.65;2.60;;;19.50;99.90;;;;;;5053820;28;20079;-60
2023/07/19 04:50:09;;;;;;;10.40;2.97;;;19.40;99.90;;;;;;5053842;28;20033;-60
2023/07/19 04:52:35;;;;;;;5.40;2.30;;;19.20;99.90;;;;;;5042314;28;20041;-60
2023/07/19 04:55:05;;;;;;;8.07;2.72;;;19.10;99.90;;;;;;5033856;28;20030;-60
2023/07/19 04:57:31;;;;;;;9.63;2.80;;;19.00;99.90;;;;;;5033700;28;20482;-60
2023/07/19 04:59:57;;;;;;;7.78;2.97;;;18.90;99.90;;;;;;5036157;28;20025;-60
2023/07/19 05:02:23;;;;;;;9.07;3.10;;;18.90;99.90;;;;;;5045494;28;20132;-60
2023/07/19 05:04:48;;;;;;;5.43;2.55;;;18.80;99.90;;;;;;5037250;28;20116;-60
2023/07/19 05:07:17;;;;;;;9.93;3.45;;;18.80;99.90;;;;;;5053202;28;20032;-61
2023/07/19 05:09:42;;;;;;;8.07;3.00;;;18.70;99.90;;;;;;5053327;28;20025;-60
2023/07/19 05:12:09;;;;;;;7.88;3.00;;;18.60;99.90;;;;;;5035023;28;20025;-61
2023/07/19 05:14:35;;;;;;;8.48;2.80;;;18.60;99.90;;;;;;5033825;28;20075;-60
2023/07/19 05:17:01;;;;;;;6.85;2.70;;;18.60;99.90;;;;;;5033483;28;20061;-61
2023/07/19 05:19:26;;;;;;;8.65;3.35;;;18.60;99.90;;;;;;5048839;28;20032;-60
2023/07/19 05:21:52;;;;;;;9.43;2.92;;;18.70;99.90;;;;;;5049254;28;20033;-60
2023/07/19 05:24:18;;;;;;;8.35;2.92;;;18.60;99.90;;;;;;5041420;28;20041;-61
2023/07/19 05:26:44;;;;;;;7.90;3.05;;;18.50;99.90;;;;;;5053210;28;20101;-60
2023/07/19 05:29:10;;;;;;;7.60;3.03;;;18.50;99.90;;;;;;5038339;28;20079;-60
2023/07/19 05:31:35;;;;;;;8.85;3.10;;;18.50;99.90;;;;;;5033037;28;20037;-60
2023/07/19 05:34:02;;;;;;;8.52;2.97;;;18.60;99.90;;;;;;5040753;28;20035;-59
2023/07/19 05:36:28;;;;;;;9.38;3.40;;;18.80;99.90;;;;;;5052754;28;20025;-60
2023/07/19 05:38:53;;;;;;;7.55;3.17;;;19.00;99.90;;;;;;5053426;28;20083;-60
2023/07/19 05:41:19;;;;;;;6.50;2.90;;;19.20;99.90;;;;;;5052933;28;20512;-60
2023/07/19 05:43:45;;;;;;;8.18;3.08;;;19.20;99.90;;;;;;5049974;28;20025;-60
2023/07/19 05:46:11;;;;;;;10.27;3.10;;;19.40;99.90;;;;;;5044876;28;20481;-60
2023/07/19 05:48:37;;;;;;;8.27;3.00;;;19.50;99.90;;;;;;5044007;28;20056;-61
2023/07/19 05:51:04;;;;;;;12.00;2.97;;;19.40;99.90;;;;;;5050150;28;20489;-60
2023/07/19 05:53:30;;;;;;;7.47;3.00;;;19.40;99.90;;;;;;5032637;28;20049;-60
2023/07/19 05:55:56;;;;;;;8.75;3.20;;;19.40;99.90;;;;;;5033095;28;20044;-59
2023/07/19 05:58:22;;;;;;;7.20;2.83;;;19.50;99.90;;;;;;5032720;28;20021;-60
2023/07/19 06:00:48;;;;;;;9.40;3.10;;;19.70;99.90;;;;;;5032235;28;20032;-60
2023/07/19 06:03:17;;;;;;;11.40;2.95;;;19.70;99.90;;;;;;5032001;28;20032;-60
2023/07/19 06:05:44;;;;;;;5.85;2.90;;;19.70;99.90;;;;;;5030993;28;20034;-60
2023/07/19 06:08:10;;;;;;;6.40;2.47;;;19.70;99.90;;;;;;5032537;28;20410;-60
2023/07/19 06:10:36;;;;;;;9.25;2.78;;;19.60;99.90;;;;;;5031263;28;20036;-61
2023/07/19 06:13:03;;;;;;;7.50;2.63;;;19.60;99.90;;;;;;5032651;28;20018;-60
2023/07/19 06:15:32;;;;;;;7.88;3.33;;;19.60;99.90;;;;;;5037965;28;20143;-60
2023/07/19 06:17:59;;;;;;;9.43;3.20;;;19.60;99.90;;;;;;5035843;28;20078;-61
2023/07/19 06:20:24;;;;;;;8.15;2.65;;;19.60;99.90;;;;;;5052118;28;20035;-61
2023/07/19 06:22:50;;;;;;;8.02;3.03;;;19.60;99.90;;;;;;5052180;28;20029;-60
2023/07/19 06:25:16;;;;;;;7.82;3.05;;;19.60;99.90;;;;;;5050530;28;20045;-60
2023/07/19 06:27:42;;;;;;;8.10;2.85;;;19.70;99.90;;;;;;5039844;28;20029;-60
2023/07/19 06:30:12;;;;;;;8.60;3.05;;;19.90;99.90;;;;;;5038491;28;20048;-60
2023/07/19 06:32:38;;;;;;;7.70;3.28;;;19.90;99.90;;;;;;5051532;28;20071;-60
2023/07/19 06:35:05;;;;;;;10.38;3.10;;;20.00;99.90;;;;;;5035322;28;20037;-59
2023/07/19 06:37:31;;;;;;;9.10;3.30;;;20.10;99.90;;;;;;5032215;28;20022;-60
2023/07/19 06:39:57;;;;;;;13.80;6.85;;;20.00;99.90;;;;;;5031913;28;20414;-60
2023/07/19 06:42:23;;;;;;;14.23;6.47;;;20.00;99.90;;;;;;5032121;28;20018;-59
2023/07/19 06:44:49;;;;;;;9.70;4.63;;;19.90;99.90;;;;;;5040039;28;20112;-60
2023/07/19 06:47:15;;;;;;;8.38;3.25;;;19.90;99.90;;;;;;5046808;28;20479;-59
2023/07/19 06:49:41;;;;;;;7.80;2.63;;;20.20;99.90;;;;;;5031634;28;20108;-59
2023/07/19 06:52:07;;;;;;;6.60;2.45;;;20.40;99.90;;;;;;5031620;28;20025;-59
2023/07/19 06:54:33;;;;;;;7.13;2.50;;;20.50;99.90;;;;;;5048741;28;20116;-59
2023/07/19 06:56:59;;;;;;;7.80;2.90;;;20.70;99.90;;;;;;5051743;28;20538;-59
2023/07/19 06:59:26;;;;;;;8.70;2.60;;;20.70;99.90;;;;;;5032631;28;20489;-59
2023/07/19 07:01:52;;;;;;;8.73;2.42;;;20.90;99.90;;;;;;5031786;28;20029;-59
2023/07/19 07:04:17;;;;;;;5.72;2.45;;;21.00;99.90;;;;;;5031380;28;20040;-59
2023/07/19 07:06:43;;;;;;;6.55;2.42;;;20.90;99.90;;;;;;5037854;28;20025;-58
2023/07/19 07:09:09;;;;;;;5.90;2.17;;;21.00;99.90;;;;;;5039440;28;20398;-58
2023/07/19 07:11:34;;;;;;;6.43;2.60;;;21.00;99.90;;;;;;5044078;28;20022;-59
2023/07/19 07:14:00;;;;;;;7.18;2.30;;;20.90;99.90;;;;;;5051212;28;20029;-59
2023/07/19 07:16:28;;;;;;;7.15;2.25;;;21.00;99.90;;;;;;5038958;28;20037;-58
2023/07/19 07:18:54;;;;;;;6.05;2.60;;;21.10;99.90;;;;;;5051133;28;20033;-59
2023/07/19 07:21:19;;;;;;;6.40;2.47;;;21.00;99.90;;;;;;5051072;28;20021;-58
2023/07/19 07:23:45;;;;;;;4.90;2.40;;;20.80;99.90;;;;;;5051153;28;20584;-59
2023/07/19 07:26:12;;;;;;;7.60;2.55;;;20.70;99.90;;;;;;5051435;28;20064;-58
2023/07/19 07:28:38;;;;;;;5.20;2.10;;;20.70;99.90;;;;;;5051201;28;20024;-59
2023/07/19 07:31:08;;;;;;;6.65;2.28;;;20.60;99.90;;;;;;5051004;28;20033;-59
2023/07/19 07:33:35;;;;;;;5.78;2.20;;;20.60;99.90;;;;;;5051101;28;20512;-59
2023/07/19 07:36:00;;;;;;;6.43;2.50;;;20.60;99.90;;;;;;5051403;28;20029;-59
2023/07/19 07:38:27;;;;;;;5.85;2.70;;;20.50;99.90;;;;;;5051181;28;20090;-60
2023/07/19 07:41:01;;;;;;;6.10;2.58;;;20.50;99.90;;;;;;5051013;28;20497;-59
2023/07/19 07:43:27;;;;;;;7.40;2.38;;;20.40;99.90;;;;;;5050940;28;20025;-59
2023/07/19 07:45:55;;;;;;;5.63;2.47;;;20.40;99.90;;;;;;5051121;28;20043;-59
2023/07/19 07:48:22;;;;;;;5.65;2.50;;;20.40;99.90;;;;;;5050988;28;20025;-58
2023/07/19 07:50:52;;;;;;;6.28;2.58;;;20.40;99.90;;;;;;5050888;28;20025;-59
2023/07/19 07:53:18;;;;;;;5.32;2.28;;;20.50;99.90;;;;;;5050974;28;20021;-59
2023/07/19 07:55:44;;;;;;;7.43;2.75;;;20.60;99.90;;;;;;5051035;28;20056;-60
2023/07/19 07:58:11;;;;;;;8.57;2.75;;;20.60;99.90;;;;;;5050987;28;20021;-59
2023/07/19 08:00:37;;;;;;;7.18;2.47;;;20.50;99.90;;;;;;5050686;28;20024;-59
2023/07/19 08:03:02;;;;;;;4.80;2.53;;;20.60;99.90;;;;;;5051010;28;20027;-59
2023/07/19 08:05:29;;;;;;;5.65;2.33;;;21.00;99.90;;;;;;5051015;28;20032;-59
2023/07/19 08:07:55;;;;;;;6.93;2.53;;;21.20;99.90;;;;;;5050922;28;20056;-59
2023/07/19 08:10:20;;;;;;;6.88;2.22;;;21.40;99.90;;;;;;5050729;28;20118;-59
2023/07/19 08:12:47;;;;;;;7.60;2.90;;;21.50;99.90;;;;;;5050754;28;20033;-59
2023/07/19 08:15:12;;;;;;;5.15;2.28;;;21.60;99.90;;;;;;5050604;28;20059;-59
2023/07/19 08:17:39;;;;;;;6.15;2.60;;;21.60;99.90;;;;;;5050647;28;20493;-59
2023/07/19 08:20:06;;;;;;;5.60;2.47;;;21.70;99.90;;;;;;5050926;28;20462;-60
2023/07/19 08:22:33;;;;;;;6.72;2.47;;;21.80;99.90;;;;;;5050443;28;20106;-59
2023/07/19 08:24:59;;;;;;;5.13;2.28;;;21.80;99.90;;;;;;5050705;28;20055;-59
2023/07/19 08:27:26;;;;;;;3.00;1.80;;;21.90;99.90;;;;;;5051438;28;20112;-59
2023/07/19 08:29:52;;;;;;;5.75;2.47;;;21.90;99.90;;;;;;5054119;28;20033;-59
2023/07/19 08:32:18;;;;;;;6.05;2.20;;;21.90;99.90;;;;;;5054281;28;20029;-59
2023/07/19 08:34:45;;;;;;;6.60;2.42;;;21.80;99.90;;;;;;5054213;28;20090;-59
2023/07/19 08:37:10;;;;;;;6.95;2.75;;;21.70;99.90;;;;;;5054393;28;20039;-59
2023/07/19 08:39:36;;;;;;;4.55;2.28;;;21.60;99.90;;;;;;5054562;28;20108;-59
2023/07/19 08:42:03;;;;;;;5.25;2.20;;;21.60;99.90;;;;;;5054174;28;20032;-59
2023/07/19 08:44:29;;;;;;;5.38;2.38;;;21.50;99.90;;;;;;5053804;28;20036;-59
2023/07/19 08:46:55;;;;;;;5.38;2.40;;;21.40;99.90;;;;;;5054473;28;20021;-59
2023/07/19 08:49:21;;;;;;;6.05;2.50;;;21.40;99.90;;;;;;5054327;28;20021;-59
2023/07/19 08:51:47;;;;;;;4.82;2.50;;;21.40;99.90;;;;;;5054025;28;20071;-59
2023/07/19 08:54:13;;;;;;;3.88;2.63;;;21.40;99.90;;;;;;5053902;28;20029;-59
2023/07/19 08:56:40;;;;;;;4.45;2.50;;;21.40;99.90;;;;;;5053810;28;20493;-59
2023/07/19 08:59:07;;;;;;;5.80;2.40;;;21.40;99.90;;;;;;5053860;28;20033;-59
2023/07/19 09:01:33;;;;;;;5.00;2.22;;;21.50;99.90;;;;;;5053737;28;20106;-59
2023/07/19 09:03:59;;;;;;;5.30;2.50;;;21.60;99.90;;;;;;5053438;28;20512;-59
2023/07/19 09:06:28;;;;;;;4.78;2.40;;;21.60;99.90;;;;;;5053700;28;20029;-59
2023/07/19 09:08:54;;;;;;;7.65;2.85;;;21.60;99.90;;;;;;5053600;28;20025;-58
2023/07/19 09:11:21;;;;;;;5.13;2.42;;;21.70;99.90;;;;;;5053760;28;20456;-59
2023/07/19 09:13:52;;;;;;;5.22;2.10;;;21.70;99.90;;;;;;5053188;28;20505;-59
2023/07/19 09:16:29;;;;;;;6.00;2.60;;;21.70;99.90;;;;;;5053498;28;20032;-59
2023/07/19 09:18:57;;;;;;;4.95;2.20;;;21.80;99.90;;;;;;5053268;28;20025;-60
2023/07/19 09:21:32;;;;;;;6.05;2.40;;;22.00;99.90;;;;;;5053550;28;20522;-59
2023/07/19 09:24:02;;;;;;;4.90;2.10;;;22.20;99.90;;;;;;5052890;28;20049;-59
2023/07/19 09:26:27;;;;;;;4.50;2.22;;;22.40;99.90;;;;;;5053298;28;20552;-59
2023/07/19 09:28:55;;;;;;;4.20;2.15;;;22.60;99.90;;;;;;5053158;28;20021;-59
2023/07/19 09:31:20;;;;;;;3.83;2.30;;;22.50;99.90;;;;;;5053182;28;20406;-59
2023/07/19 09:33:46;;;;;;;5.28;2.22;;;22.50;99.90;;;;;;5052123;28;20029;-60
2023/07/19 09:36:17;;;;;;;5.70;2.53;;;22.70;99.90;;;;;;5052993;28;20037;-59
2023/07/19 09:38:43;;;;;;;4.45;2.30;;;22.90;99.90;;;;;;5052625;28;20021;-59
2023/07/19 09:41:09;;;;;;;7.13;2.17;;;22.80;99.90;;;;;;5052701;28;20021;-59
2023/07/19 09:43:37;;;;;;;5.57;2.28;;;22.90;99.90;;;;;;5052816;28;20036;-59
2023/07/19 09:46:03;;;;;;;7.68;2.53;;;22.90;99.90;;;;;;5052809;28;20041;-59
2023/07/19 09:48:30;;;;;;;5.32;2.33;;;22.90;99.90;;;;;;5053234;28;20017;-59
2023/07/19 09:51:01;;;;;;;6.03;2.30;;;23.00;99.90;;;;;;5052636;28;20601;-59
2023/07/19 09:53:28;;;;;;;5.47;2.20;;;23.10;99.90;;;;;;5052236;28;20520;-59
2023/07/19 09:55:55;;;;;;;3.60;1.92;;;23.00;99.90;;;;;;5052301;28;20025;-59
2023/07/19 09:58:22;;;;;;;4.40;2.20;;;22.90;99.90;;;;;;5053018;28;20123;-59
2023/07/19 10:00:48;;;;;;;4.63;2.17;;;22.80;99.90;;;;;;5052561;28;20032;-60
2023/07/19 10:03:18;;;;;;;5.38;2.30;;;22.80;99.90;;;;;;5052607;28;20040;-59
2023/07/19 10:05:44;;;;;;;4.10;2.25;;;22.70;99.90;;;;;;5052421;28;20130;-59
2023/07/19 10:08:11;;;;;;;3.80;2.10;;;22.60;99.90;;;;;;5052357;28;20024;-59
2023/07/19 10:10:37;;;;;;;5.13;2.10;;;22.80;99.90;;;;;;5052013;28;20410;-59
2023/07/19 10:13:03;;;;;;;5.45;2.10;;;22.80;99.90;;;;;;5052796;28;20075;-59
2023/07/19 10:15:29;;;;;;;5.13;2.00;;;22.90;99.90;;;;;;5052293;28;20033;-59
2023/07/19 10:17:58;;;;;;;5.85;2.33;;;22.80;99.90;;;;;;5052223;28;20037;-59
2023/07/19 10:20:58;;;;;;;3.35;2.03;;;22.80;99.90;;;;;;5052763;28;20095;-59
2023/07/19 10:23:24;;;;;;;3.80;1.88;;;22.90;99.90;;;;;;5052066;28;20045;-59
2023/07/19 10:25:49;;;;;;;4.55;2.03;;;22.90;99.90;;;;;;5051827;28;20041;-59
2023/07/19 10:28:33;;;;;;;4.70;2.10;;;22.90;99.90;;;;;;5052075;28;20459;-59
2023/07/19 10:31:03;;;;;;;3.83;2.00;;;23.00;99.90;;;;;;5052040;28;20489;-59
2023/07/19 10:33:31;;;;;;;4.95;2.33;;;23.10;99.90;;;;;;5051774;28;20079;-60
2023/07/19 10:36:08;;;;;;;4.07;1.90;;;23.20;99.90;;;;;;5052507;28;20025;-59
2023/07/19 10:38:34;;;;;;;3.60;1.90;;;23.40;99.90;;;;;;5052045;28;20169;-59
2023/07/19 10:41:02;;;;;;;4.35;2.20;;;23.40;99.90;;;;;;5051357;28;20025;-60
2023/07/19 10:43:33;;;;;;;4.78;1.85;;;23.80;99.90;;;;;;5051906;28;20064;-60
2023/07/19 10:46:00;;;;;;;4.43;2.10;;;23.80;99.90;;;;;;5052129;28;20448;-59
2023/07/19 10:48:31;;;;;;;5.57;2.00;;;24.00;99.90;;;;;;5051800;28;20025;-59
2023/07/19 10:51:00;;;;;;;4.60;1.95;;;23.90;99.90;;;;;;5050870;28;20036;-59
2023/07/19 10:53:27;;;;;;;4.55;2.00;;;24.00;99.90;;;;;;5038244;28;20433;-59
2023/07/19 10:55:59;;;;;;;4.15;1.73;;;24.00;99.90;;;;;;5043862;28;20045;-59
2023/07/19 10:58:25;;;;;;;5.43;1.70;;;24.30;99.90;;;;;;5033636;28;20037;-60
2023/07/19 11:00:56;;;;;;;4.53;1.90;;;24.20;99.90;;;;;;5031700;28;20021;-60
2023/07/19 11:03:24;;;;;;;4.78;1.70;;;24.30;99.90;;;;;;5031610;28;20513;-60
2023/07/19 11:05:51;;;;;;;2.58;1.70;;;24.30;99.90;;;;;;5031248;28;20441;-59
2023/07/19 11:08:25;;;;;;;4.57;1.70;;;24.50;99.90;;;;;;5030977;28;20017;-59
2023/07/19 11:10:54;;;;;;;4.22;1.92;;;24.60;99.90;;;;;;5031253;28;20029;-59
2023/07/19 11:13:22;;;;;;;3.53;1.70;;;24.40;99.90;;;;;;5034733;28;20025;-59
2023/07/19 11:15:49;;;;;;;4.43;1.60;;;24.50;99.90;;;;;;5041861;28;20044;-60
2023/07/19 11:18:29;;;;;;;4.63;2.00;;;24.40;99.90;;;;;;5037750;28;20417;-59
2023/07/19 11:20:59;;;;;;;3.55;1.70;;;24.60;99.90;;;;;;5033320;28;20028;-59
2023/07/19 11:23:25;;;;;;;4.50;1.73;;;24.70;99.90;;;;;;5030444;28;20099;-59
2023/07/19 11:26:01;;;;;;;3.22;1.70;;;24.60;99.90;;;;;;5031095;28;20127;-59
2023/07/19 11:28:42;;;;;;;5.85;2.15;;;24.60;99.90;;;;;;5031204;28;20029;-60
2023/07/19 11:31:10;;;;;;;4.70;1.60;;;24.80;99.90;;;;;;5031680;28;20023;-59
2023/07/19 11:33:36;;;;;;;2.88;1.70;;;24.80;99.90;;;;;;5037230;28;20123;-59
2023/07/19 11:36:07;;;;;;;4.80;1.60;;;25.00;99.90;;;;;;5050596;28;20028;-59
2023/07/19 11:38:33;;;;;;;4.60;1.75;;;24.80;99.90;;;;;;5030620;28;20037;-59
2023/07/19 11:40:59;;;;;;;4.72;1.92;;;25.10;99.90;;;;;;5033861;28;20057;-59
2023/07/19 11:43:25;;;;;;;4.45;1.98;;;25.10;99.90;;;;;;5050779;28;20110;-60
2023/07/19 11:45:51;;;;;;;3.83;1.60;;;25.00;99.90;;;;;;5051169;28;20422;-59
2023/07/19 11:48:17;;;;;;;4.03;1.58;;;25.00;99.90;;;;;;5051049;28;20036;-59
2023/07/19 11:50:43;;;;;;;4.80;1.42;;;24.90;99.90;;;;;;5043509;28;20057;-59
2023/07/19 11:53:08;;;;;;;4.50;1.45;;;24.70;99.90;;;;;;5040838;28;20059;-60
2023/07/19 11:55:34;;;;;;;2.95;1.33;;;24.60;99.90;;;;;;5050724;28;20082;-59
2023/07/19 11:58:03;;;;;;;2.97;1.52;;;24.50;99.90;;;;;;5050602;28;20021;-60
2023/07/19 12:00:30;;;;;;;3.38;1.60;;;24.60;99.90;;;;;;5041177;28;20029;-59
2023/07/19 12:02:57;;;;;;;2.92;1.33;;;24.60;99.90;;;;;;5039817;28;20051;-60
2023/07/19 12:05:24;;;;;;;4.97;1.65;;;24.60;99.90;;;;;;5054147;28;20405;-60
2023/07/19 12:07:51;;;;;;;4.13;1.70;;;24.50;99.90;;;;;;5054230;28;20017;-59
2023/07/19 12:10:18;;;;;;;3.70;1.40;;;24.60;99.90;;;;;;5054436;28;20079;-60
2023/07/19 12:12:44;;;;;;;2.42;1.30;;;24.60;99.90;;;;;;5054840;28;20519;-59
2023/07/19 12:15:11;;;;;;;2.92;1.70;;;24.70;99.90;;;;;;5054466;28;20104;-60
2023/07/19 12:17:37;;;;;;;4.25;1.50;;;24.60;99.90;;;;;;5045536;28;20033;-59
2023/07/19 12:20:07;;;;;;;4.88;1.60;;;24.80;99.90;;;;;;5038793;28;20025;-60
2023/07/19 12:22:34;;;;;;;3.67;1.50;;;24.70;99.90;;;;;;5034224;28;20060;-59
2023/07/19 12:25:00;;;;;;;2.78;1.27;;;24.80;99.90;;;;;;5034613;28;20053;-60
2023/07/19 12:27:26;;;;;;;4.18;1.70;;;24.80;99.90;;;;;;5038246;28;20120;-60
2023/07/19 12:29:52;;;;;;;3.78;1.75;;;24.80;99.90;;;;;;5041350;28;20057;-59
2023/07/19 12:32:18;;;;;;;2.47;1.45;;;25.10;99.90;;;;;;5034342;28;20025;-60
2023/07/19 12:34:45;;;;;;;3.65;1.40;;;25.20;99.90;;;;;;5050426;28;20029;-58
2023/07/19 12:37:12;;;;;;;2.10;1.25;;;25.30;99.90;;;;;;5073204;28;20025;-59
2023/07/19 12:39:38;;;;;;;3.47;1.40;;;25.20;99.90;;;;;;5074144;28;20024;-59
2023/07/19 12:42:04;;;;;;;2.80;1.40;;;25.50;99.90;;;;;;5073604;28;20121;-59